AQQ10 IFIS: Internet Flight Information System
logo dgac
Martes 27 de Febrero del 2024
Buscar por aerodromo o helipuerto
Ingrese nombre de aeródromo, localidad o designador OACI:
METAR del 27-02-2024 a las 23:00 UTC
Para mayor información visite www.meteochile.gob.cl
METAR SCCY 272300Z VRB04KT 9999 SCT026 BKN040 15/10 Q1006
Viento: dirección variable, velocidad 4 nudos
Visibilidad: 10 km o más
Nubes: Nubosidad parcial a 2600 pies sobre el nivel del aeródromo
Nubes: Nublado a 4000 pies sobre el nivel del aeródromo
Temperatura: 15 °C
Rocío: 10 °C
Humedad_relativa: 72%
Presión: 1006 hPa
METAR del 27-02-2024 a las 22:00 UTC
Para mayor información visite www.meteochile.gob.cl
METAR SCCY 272200Z VRB02KT 9999 -SHRA SCT030 BKN040 16/12 Q1005
Viento: dirección variable, velocidad 2 nudos
Visibilidad: 10 km o más
Débil ChubascosLluvia
Nubes: Nubosidad parcial a 3000 pies sobre el nivel del aeródromo
Nubes: Nublado a 4000 pies sobre el nivel del aeródromo
Temperatura: 16 °C
Rocío: 12 °C
Humedad_relativa: 77%
Presión: 1005 hPa
METAR del 27-02-2024 a las 21:00 UTC
Para mayor información visite www.meteochile.gob.cl
METAR SCCY 272100Z VRB04KT 9999 BKN040 18/10 Q1005
Viento: dirección variable, velocidad 4 nudos
Visibilidad: 10 km o más
Nubes: Nublado a 4000 pies sobre el nivel del aeródromo
Temperatura: 18 °C
Rocío: 10 °C
Humedad_relativa: 60%
Presión: 1005 hPa
METAR del 27-02-2024 a las 20:00 UTC
Para mayor información visite www.meteochile.gob.cl
METAR SCCY 272000Z VRB03KT 9999 OVC040 19/11 Q1005
Viento: dirección variable, velocidad 3 nudos
Visibilidad: 10 km o más
Nubes: Cubierto a 4000 pies sobre el nivel del aeródromo
Temperatura: 19 °C
Rocío: 11 °C
Humedad_relativa: 60%
Presión: 1005 hPa
METAR del 27-02-2024 a las 19:00 UTC
Para mayor información visite www.meteochile.gob.cl
METAR SCCY 271900Z VRB05G15KT 9999 OVC040 18/10 Q1006
Viento: dirección variable, velocidad 5 nudos, con ráfagas de velocidad máxima de 15Nudos
Visibilidad: 10 km o más
Nubes: Cubierto a 4000 pies sobre el nivel del aeródromo
Temperatura: 18 °C
Rocío: 10 °C
Humedad_relativa: 60%
Presión: 1006 hPa
METAR del 27-02-2024 a las 18:00 UTC
Para mayor información visite www.meteochile.gob.cl
METAR SCCY 271800Z VRB03KT 9999 BKN033 OVC040 17/10 Q1006
Viento: dirección variable, velocidad 3 nudos
Visibilidad: 10 km o más
Nubes: Nublado a 3300 pies sobre el nivel del aeródromo
Nubes: Cubierto a 4000 pies sobre el nivel del aeródromo
Temperatura: 17 °C
Rocío: 10 °C
Humedad_relativa: 63%
Presión: 1006 hPa
METAR del 27-02-2024 a las 17:00 UTC
Para mayor información visite www.meteochile.gob.cl
METAR SCCY 271700Z 16003KT 9999 -SHRA BKN030 OVC040 16/10 Q1007
Viento: dirección 160 grados, velocidad 3 nudos
Visibilidad: 10 km o más
Débil ChubascosLluvia
Nubes: Nublado a 3000 pies sobre el nivel del aeródromo
Nubes: Cubierto a 4000 pies sobre el nivel del aeródromo
Temperatura: 16 °C
Rocío: 10 °C
Humedad_relativa: 68%
Presión: 1007 hPa
METAR del 27-02-2024 a las 16:00 UTC
Para mayor información visite www.meteochile.gob.cl
METAR SCCY 271600Z 04003KT 340V110 9999 -SHRA SCT030 OVC040 16/10 Q1007
Viento: dirección 040 grados, velocidad 3 nudos
Viento con dirección variable entre 340 y 110 grados
Visibilidad: 10 km o más
Débil ChubascosLluvia
Nubes: Nubosidad parcial a 3000 pies sobre el nivel del aeródromo
Nubes: Cubierto a 4000 pies sobre el nivel del aeródromo
Temperatura: 16 °C
Rocío: 10 °C
Humedad_relativa: 68%
Presión: 1007 hPa
METAR del 27-02-2024 a las 15:00 UTC
Para mayor información visite www.meteochile.gob.cl
METAR SCCY 271500Z VRB02KT 9999 SCT040 OVC050 17/10 Q1007
Viento: dirección variable, velocidad 2 nudos
Visibilidad: 10 km o más
Nubes: Nubosidad parcial a 4000 pies sobre el nivel del aeródromo
Nubes: Cubierto a 5000 pies sobre el nivel del aeródromo
Temperatura: 17 °C
Rocío: 10 °C
Humedad_relativa: 63%
Presión: 1007 hPa
METAR del 27-02-2024 a las 14:00 UTC
Para mayor información visite www.meteochile.gob.cl
METAR SCCY 271400Z VRB04KT 9999 SCT036 OVC200 17/10 Q1008
Viento: dirección variable, velocidad 4 nudos
Visibilidad: 10 km o más
Nubes: Nubosidad parcial a 3600 pies sobre el nivel del aeródromo
Nubes: Cubierto a 20000 pies sobre el nivel del aeródromo
Temperatura: 17 °C
Rocío: 10 °C
Humedad_relativa: 63%
Presión: 1008 hPa